Airfield :
LOGIN :

Register | Disclaimer

   EN    FR    IT 

 










Legend :    VFR   Marginal VFR   IFR   Intensive IFR   Very Intensive IFR
Visi :
Ceiling :
>= 8 km
>= 3000ft
5 to 8 km
1000 to 3000 ft
1500m to 5 km
500 to 1000 ft
800 to 1500m
200 to 500 ft
< 800m
< 200 ft
Symbols :   Thunderstorms  Fog  Heavy snow  Heavy precipitations  Wind > 20 kt
SIGMETs :     Misc.  Thunderstorms  Icing  Turbulence  Mountain Waves  Volcanic Ashes






- Airport Elevation : 844 ft
- IATA code : OSR


LKMT - Ostrava-Mosnov

CURRENT METAR :
  • 290730Z 07003KT 6000 BKN033 00/M01 Q1021 NOSIG

EXPIRED METARs :
  • 290700Z 04002KT 6000 BKN033 M00/M01 Q1021 NOSIG
  • 290630Z 02003KT 6000 BKN032 M01/M01 Q1020 TEMPO 4000 BR
  • 290600Z 07002KT 9999 BKN032 M00/M01 Q1020 NOSIG
  • 290530Z VRB02KT 9999 OVC031 M00/M01 Q1020 NOSIG
  • 290500Z VRB02KT 9999 OVC031 M00/M01 Q1020 NOSIG

TAF TAF LKMT
Valid from the 29 at 06:00 until the 30 at 12:00 UTC


290500Z 2906/3012 VRB02KT 9999 BKN030
BECMG 2909/2912 CAVOK
BECMG 2923/3001 03004KT 1400 BR OVC003
TEMPO 3001/3006 0700 FZFG OVC002
BECMG 3007/3009 3500 BR BKN005
BECMG 3010/3012 7000 SCT012



MET'MAP, your aeronautical weather chart ! - Copyright ORBIFLY December 2007 - Disclaimer

ORBIFLY MET'MAP TEAM :

Programming & Development : Alexandra Zaïnal
Original concept : Baudouin d'Aumeries
Technical & hardware support : Manuel Goepfert
Assistance : Marc-Olivier Méhu




SOURCES & CREDITS :

   NOAA